Time;durP1;ratioP1;P1;durP2;ratioP2;P2;SDS_P1;SDS_P2;PMS_P1;PMS_P2;Temp;Humidity;BMP_temperature;BMP_pressure;BME280_temperature;BME280_humidity;BME280_pressure;Samples;Min_cycle;Max_cycle;Signal;HPM_P1;HPM_P2
2021/10/24 00:01:22;;;;;;;1.05;0.75;;;;;;;;;;4964951;28;20031;-72
2021/10/24 00:03:48;;;;;;;1.50;0.93;;;;;;;;;;4970863;28;20113;-75
2021/10/24 00:06:14;;;;;;;1.65;0.95;;;;;;;;;;4974090;28;20029;-74
2021/10/24 00:08:39;;;;;;;2.47;1.23;;;;;;;;;;4972635;28;20074;-72
2021/10/24 00:11:05;;;;;;;2.38;1.02;;;;;;;;;;4973389;28;20034;-74
2021/10/24 00:13:32;;;;;;;2.10;1.20;;;;;;;;;;4974733;28;20030;-72
2021/10/24 00:15:59;;;;;;;2.15;1.15;;;;;;;;;;4973918;28;20033;-72
2021/10/24 00:18:25;;;;;;;2.47;1.20;;;;;;;;;;4968488;28;20069;-73
2021/10/24 00:20:50;;;;;;;1.85;0.85;;;;;;;;;;4972329;28;20070;-73
2021/10/24 00:23:16;;;;;;;3.88;1.05;;;;;;;;;;4973322;28;20190;-74
2021/10/24 00:25:42;;;;;;;3.45;1.48;;;;;;;;;;4974998;28;20030;-73
2021/10/24 00:28:07;;;;;;;2.47;1.05;;;;;;;;;;4975680;28;20487;-72
2021/10/24 00:30:34;;;;;;;2.10;1.02;;;;;;;;;;4961559;28;20031;-73
2021/10/24 00:33:03;;;;;;;2.55;1.08;;;;;;;;;;4971908;28;20041;-72
2021/10/24 00:35:28;;;;;;;1.60;0.98;;;;;;;;;;4973807;28;20468;-74
2021/10/24 00:37:54;;;;;;;3.03;1.30;;;;;;;;;;4973018;28;20063;-74
2021/10/24 00:40:19;;;;;;;2.38;1.10;;;;;;;;;;4968956;28;20042;-74
2021/10/24 00:42:50;;;;;;;3.25;1.30;;;;;;;;;;4973067;28;20038;-74
2021/10/24 00:45:17;;;;;;;2.25;1.38;;;;;;;;;;4970534;28;20031;-72
2021/10/24 00:47:45;;;;;;;2.13;0.90;;;;;;;;;;4972577;28;20031;-74
2021/10/24 00:50:11;;;;;;;2.78;0.90;;;;;;;;;;4971543;28;20046;-73
2021/10/24 00:52:37;;;;;;;2.70;1.25;;;;;;;;;;4969506;28;20516;-73
2021/10/24 00:55:04;;;;;;;2.40;1.33;;;;;;;;;;4971492;28;20023;-73
2021/10/24 00:57:29;;;;;;;6.57;1.40;;;;;;;;;;4969838;28;20037;-73
2021/10/24 00:59:55;;;;;;;1.23;0.95;;;;;;;;;;4973180;28;20559;-72
2021/10/24 01:02:21;;;;;;;3.17;1.30;;;;;;;;;;4972255;28;20046;-73
2021/10/24 01:04:47;;;;;;;3.05;1.20;;;;;;;;;;4970938;28;20039;-73
2021/10/24 01:07:16;;;;;;;3.90;1.30;;;;;;;;;;4960369;28;20031;-73
2021/10/24 01:09:43;;;;;;;2.10;1.00;;;;;;;;;;4972627;28;20035;-72
2021/10/24 01:12:09;;;;;;;2.47;1.23;;;;;;;;;;4972096;28;20034;-73
2021/10/24 01:14:35;;;;;;;2.40;1.15;;;;;;;;;;4972072;28;20122;-73
2021/10/24 01:17:00;;;;;;;3.90;1.45;;;;;;;;;;4972304;28;20030;-73
2021/10/24 01:19:26;;;;;;;2.17;1.20;;;;;;;;;;4972603;28;20436;-73
2021/10/24 01:21:52;;;;;;;2.10;1.23;;;;;;;;;;4967078;28;20049;-73
2021/10/24 01:24:18;;;;;;;2.60;1.23;;;;;;;;;;4972884;28;20391;-73
2021/10/24 01:26:43;;;;;;;2.28;1.40;;;;;;;;;;4971116;28;20031;-74
2021/10/24 01:29:10;;;;;;;2.05;1.05;;;;;;;;;;4971219;28;20378;-74
2021/10/24 01:31:36;;;;;;;2.65;1.10;;;;;;;;;;4967236;28;20549;-73
2021/10/24 01:34:04;;;;;;;1.38;0.75;;;;;;;;;;4972003;28;20042;-74
2021/10/24 01:36:30;;;;;;;1.80;1.08;;;;;;;;;;4970646;28;20572;-74
2021/10/24 01:38:55;;;;;;;3.17;1.23;;;;;;;;;;4963768;28;20042;-75
2021/10/24 01:41:27;;;;;;;2.28;1.17;;;;;;;;;;4958266;28;20378;-74
2021/10/24 01:43:53;;;;;;;2.38;1.23;;;;;;;;;;4970288;28;20489;-75
2021/10/24 01:46:19;;;;;;;3.13;1.70;;;;;;;;;;4970850;28;20113;-75
2021/10/24 01:48:45;;;;;;;2.75;1.27;;;;;;;;;;4980307;28;20038;-74
2021/10/24 01:51:12;;;;;;;2.05;1.30;;;;;;;;;;4973688;28;20034;-75
2021/10/24 01:53:41;;;;;;;2.05;1.15;;;;;;;;;;4972404;28;20407;-75
2021/10/24 01:56:07;;;;;;;2.22;1.15;;;;;;;;;;4978837;28;20487;-74
2021/10/24 01:58:33;;;;;;;1.52;1.00;;;;;;;;;;4974569;28;20030;-75
2021/10/24 02:00:59;;;;;;;2.45;1.10;;;;;;;;;;4974782;28;20030;-75
2021/10/24 02:03:24;;;;;;;2.17;1.08;;;;;;;;;;4964164;28;20031;-75
2021/10/24 02:05:50;;;;;;;4.15;1.30;;;;;;;;;;4965560;28;20105;-75
2021/10/24 02:08:16;;;;;;;2.22;1.13;;;;;;;;;;4964688;28;20027;-75
2021/10/24 02:10:43;;;;;;;1.92;0.98;;;;;;;;;;4965426;28;20045;-74
2021/10/24 02:13:10;;;;;;;2.80;1.40;;;;;;;;;;4968867;28;20110;-74
2021/10/24 02:15:36;;;;;;;2.50;1.30;;;;;;;;;;4970700;28;20034;-74
2021/10/24 02:18:03;;;;;;;2.53;1.25;;;;;;;;;;4969766;28;20105;-75
2021/10/24 02:20:29;;;;;;;1.98;1.05;;;;;;;;;;4969761;28;20358;-75
2021/10/24 02:22:55;;;;;;;2.53;1.20;;;;;;;;;;4969745;28;20050;-74
2021/10/24 02:25:21;;;;;;;2.53;1.35;;;;;;;;;;4969471;28;20518;-75
2021/10/24 02:27:47;;;;;;;2.47;1.25;;;;;;;;;;4968852;28;20026;-74
2021/10/24 02:30:14;;;;;;;2.33;1.23;;;;;;;;;;4969806;28;20143;-74
2021/10/24 02:32:41;;;;;;;2.72;1.33;;;;;;;;;;4968499;28;20483;-75
2021/10/24 02:35:07;;;;;;;3.70;1.50;;;;;;;;;;4968459;28;20259;-75
2021/10/24 02:37:33;;;;;;;3.00;1.40;;;;;;;;;;4970155;28;20082;-75
2021/10/24 02:39:59;;;;;;;1.90;1.20;;;;;;;;;;4970349;28;20455;-74
2021/10/24 02:42:24;;;;;;;3.25;1.45;;;;;;;;;;4970812;28;20430;-75
2021/10/24 02:44:49;;;;;;;2.45;1.40;;;;;;;;;;4974177;28;20073;-75
2021/10/24 02:47:17;;;;;;;2.22;1.30;;;;;;;;;;4967135;28;20111;-75
2021/10/24 02:49:44;;;;;;;3.50;1.65;;;;;;;;;;4974049;28;20041;-75
2021/10/24 02:52:10;;;;;;;2.42;1.30;;;;;;;;;;4974060;28;20106;-75
2021/10/24 02:54:35;;;;;;;2.17;1.48;;;;;;;;;;4970212;28;20026;-75
2021/10/24 02:57:02;;;;;;;2.35;1.30;;;;;;;;;;4973970;28;20046;-75
2021/10/24 02:59:28;;;;;;;3.20;1.40;;;;;;;;;;4973897;28;20714;-75
2021/10/24 03:01:53;;;;;;;3.17;1.40;;;;;;;;;;4972012;28;20022;-75
2021/10/24 03:04:19;;;;;;;3.30;1.30;;;;;;;;;;4971944;28;20430;-75
2021/10/24 03:06:45;;;;;;;3.25;1.30;;;;;;;;;;4973571;28;20034;-75
2021/10/24 03:09:11;;;;;;;1.60;0.90;;;;;;;;;;4972549;28;20124;-75
2021/10/24 03:11:37;;;;;;;4.00;1.20;;;;;;;;;;4974148;28;20113;-74
2021/10/24 03:14:02;;;;;;;1.52;1.00;;;;;;;;;;4972479;28;20356;-74
2021/10/24 03:16:28;;;;;;;2.85;1.23;;;;;;;;;;4973400;28;20029;-75
2021/10/24 03:18:53;;;;;;;1.83;1.10;;;;;;;;;;4973207;28;20030;-74
2021/10/24 03:21:19;;;;;;;3.55;1.30;;;;;;;;;;4972899;28;20397;-74
2021/10/24 03:23:45;;;;;;;3.28;1.52;;;;;;;;;;4960672;28;20038;-74
2021/10/24 03:26:10;;;;;;;2.78;1.33;;;;;;;;;;4973847;28;20467;-75
2021/10/24 03:28:36;;;;;;;1.70;1.10;;;;;;;;;;4973702;28;20030;-75
2021/10/24 03:31:02;;;;;;;2.17;1.20;;;;;;;;;;4972888;28;20161;-74
2021/10/24 03:33:28;;;;;;;3.45;1.25;;;;;;;;;;4969476;28;20047;-75
2021/10/24 03:35:53;;;;;;;2.38;1.42;;;;;;;;;;4969451;28;20499;-74
2021/10/24 03:38:19;;;;;;;3.22;1.52;;;;;;;;;;4973071;28;20034;-75
2021/10/24 03:40:45;;;;;;;3.42;1.73;;;;;;;;;;4973272;28;20034;-74
2021/10/24 03:43:10;;;;;;;4.68;1.98;;;;;;;;;;4973604;28;20395;-74
2021/10/24 03:45:36;;;;;;;3.90;1.90;;;;;;;;;;4973582;28;20383;-74
2021/10/24 03:48:01;;;;;;;3.63;1.70;;;;;;;;;;4972451;28;20634;-74
2021/10/24 03:50:27;;;;;;;4.55;2.00;;;;;;;;;;4970616;28;20427;-74
2021/10/24 03:52:52;;;;;;;3.25;1.58;;;;;;;;;;4967771;28;20379;-75
2021/10/24 03:55:18;;;;;;;6.97;1.85;;;;;;;;;;4971478;28;20030;-74
2021/10/24 03:57:44;;;;;;;3.88;1.70;;;;;;;;;;4954204;28;20054;-74
2021/10/24 04:00:11;;;;;;;3.00;1.70;;;;;;;;;;4966943;28;20545;-74
2021/10/24 04:02:58;;;;;;;5.55;2.20;;;;;;;;;;4972916;28;20030;-74
2021/10/24 04:05:26;;;;;;;6.25;2.20;;;;;;;;;;4967967;28;20033;-74
2021/10/24 04:07:52;;;;;;;6.28;2.58;;;;;;;;;;4972797;28;20471;-74
2021/10/24 04:10:20;;;;;;;6.45;2.22;;;;;;;;;;4972786;28;20065;-74
2021/10/24 04:12:46;;;;;;;4.07;2.30;;;;;;;;;;4973134;28;20058;-74
2021/10/24 04:15:13;;;;;;;4.63;2.30;;;;;;;;;;4971586;28;20035;-74
2021/10/24 04:17:39;;;;;;;4.63;2.08;;;;;;;;;;4972497;28;20371;-74
2021/10/24 04:20:10;;;;;;;4.50;2.00;;;;;;;;;;4965841;28;20038;-74
2021/10/24 04:22:37;;;;;;;4.10;2.10;;;;;;;;;;4963241;28;20047;-74
2021/10/24 04:25:05;;;;;;;3.13;2.00;;;;;;;;;;4965508;28;20126;-74
2021/10/24 04:27:32;;;;;;;4.55;2.00;;;;;;;;;;4965036;28;20039;-74
2021/10/24 04:29:58;;;;;;;3.10;1.63;;;;;;;;;;4972184;28;20043;-73
2021/10/24 04:32:23;;;;;;;4.47;1.88;;;;;;;;;;4972460;28;20438;-74
2021/10/24 04:34:49;;;;;;;6.28;2.00;;;;;;;;;;4971585;28;20125;-74
2021/10/24 04:37:14;;;;;;;3.15;1.40;;;;;;;;;;4971765;28;20086;-74
2021/10/24 04:39:40;;;;;;;3.83;2.03;;;;;;;;;;4964617;28;20039;-74
2021/10/24 04:42:05;;;;;;;4.28;2.35;;;;;;;;;;4970904;28;20023;-74
2021/10/24 04:44:31;;;;;;;5.78;2.90;;;;;;;;;;4971709;28;20446;-74
2021/10/24 04:46:57;;;;;;;3.40;2.08;;;;;;;;;;4968458;28;20121;-74
2021/10/24 04:49:22;;;;;;;4.38;2.83;;;;;;;;;;4972860;28;20039;-74
2021/10/24 04:51:48;;;;;;;4.15;2.22;;;;;;;;;;4973589;28;20030;-74
2021/10/24 04:54:14;;;;;;;5.82;2.63;;;;;;;;;;4971683;28;20379;-74
2021/10/24 04:56:39;;;;;;;2.80;1.67;;;;;;;;;;4967377;28;20066;-74
2021/10/24 04:59:04;;;;;;;2.75;1.67;;;;;;;;;;4971430;28;20463;-74
2021/10/24 05:01:30;;;;;;;4.57;1.45;;;;;;;;;;4969856;28;20066;-74
2021/10/24 05:03:55;;;;;;;3.22;2.20;;;;;;;;;;4971653;28;20026;-74
2021/10/24 05:06:21;;;;;;;3.50;2.05;;;;;;;;;;4970806;28;20037;-74
2021/10/24 05:08:46;;;;;;;5.45;2.42;;;;;;;;;;4970835;28;20039;-74
2021/10/24 05:11:12;;;;;;;3.67;2.30;;;;;;;;;;4971658;28;20031;-74
2021/10/24 05:13:39;;;;;;;4.60;2.30;;;;;;;;;;4970962;28;20066;-74
2021/10/24 05:16:05;;;;;;;5.55;2.70;;;;;;;;;;4971509;28;20383;-74
2021/10/24 05:18:31;;;;;;;4.40;2.20;;;;;;;;;;4971494;28;20026;-74
2021/10/24 05:20:56;;;;;;;3.97;2.15;;;;;;;;;;4970666;28;20062;-74
2021/10/24 05:23:22;;;;;;;6.00;2.65;;;;;;;;;;4971653;28;20047;-74
2021/10/24 05:25:47;;;;;;;4.57;2.50;;;;;;;;;;4971699;28;20089;-74
2021/10/24 05:28:13;;;;;;;4.88;2.63;;;;;;;;;;4970771;28;20077;-74
2021/10/24 05:30:38;;;;;;;4.05;2.35;;;;;;;;;;4971355;28;20117;-74
2021/10/24 05:33:04;;;;;;;4.70;2.42;;;;;;;;;;4971250;28;20026;-74
2021/10/24 05:35:30;;;;;;;5.95;2.47;;;;;;;;;;4962634;28;20086;-74
2021/10/24 05:37:55;;;;;;;4.18;2.38;;;;;;;;;;4970142;28;20386;-74
2021/10/24 05:40:21;;;;;;;4.85;2.38;;;;;;;;;;4970459;28;20118;-74
2021/10/24 05:42:46;;;;;;;5.05;2.70;;;;;;;;;;4964974;28;20077;-74
2021/10/24 05:45:12;;;;;;;5.82;2.45;;;;;;;;;;4971130;28;20056;-74
2021/10/24 05:47:37;;;;;;;5.00;2.78;;;;;;;;;;4971083;28;20035;-74
2021/10/24 05:50:04;;;;;;;3.55;2.20;;;;;;;;;;4970053;28;20077;-74
2021/10/24 05:52:29;;;;;;;5.32;2.50;;;;;;;;;;4971226;28;20478;-74
2021/10/24 05:54:55;;;;;;;5.28;2.80;;;;;;;;;;4970566;28;20033;-74
2021/10/24 05:57:21;;;;;;;7.60;2.72;;;;;;;;;;4971125;28;20062;-74
2021/10/24 05:59:46;;;;;;;4.72;2.20;;;;;;;;;;4970564;28;20053;-74
2021/10/24 06:02:12;;;;;;;5.13;2.50;;;;;;;;;;4968830;28;20614;-74
2021/10/24 06:04:37;;;;;;;5.85;2.55;;;;;;;;;;4965841;28;20066;-74
2021/10/24 06:07:04;;;;;;;4.90;2.53;;;;;;;;;;4970586;28;20034;-74
2021/10/24 06:09:49;;;;;;;4.45;2.50;;;;;;;;;;4970806;28;20023;-74
2021/10/24 06:12:28;;;;;;;5.30;2.80;;;;;;;;;;4961358;28;20030;-74
2021/10/24 06:14:53;;;;;;;5.82;3.22;;;;;;;;;;4969165;28;20035;-75
2021/10/24 06:17:19;;;;;;;5.35;2.15;;;;;;;;;;4968495;28;20522;-74
2021/10/24 06:19:45;;;;;;;7.10;2.80;;;;;;;;;;4957970;28;20042;-74
2021/10/24 06:22:10;;;;;;;4.80;2.47;;;;;;;;;;4970516;28;20069;-74
2021/10/24 06:24:36;;;;;;;4.97;2.60;;;;;;;;;;4969226;28;22389;-74
2021/10/24 06:27:01;;;;;;;5.00;2.67;;;;;;;;;;4970334;28;20077;-74
2021/10/24 06:29:27;;;;;;;6.35;2.65;;;;;;;;;;4970305;28;20109;-74
2021/10/24 06:31:52;;;;;;;4.35;2.42;;;;;;;;;;4969531;28;20030;-74
2021/10/24 06:34:18;;;;;;;4.65;2.17;;;;;;;;;;4969953;28;20026;-74
2021/10/24 06:36:43;;;;;;;5.00;2.30;;;;;;;;;;4966392;28;20031;-74
2021/10/24 06:39:10;;;;;;;4.57;2.40;;;;;;;;;;4970310;28;20026;-75
2021/10/24 06:41:35;;;;;;;5.95;2.50;;;;;;;;;;4970263;28;20028;-74
2021/10/24 06:44:01;;;;;;;5.85;2.60;;;;;;;;;;4970293;28;20037;-74
2021/10/24 06:46:26;;;;;;;7.10;3.30;;;;;;;;;;4970535;28;20474;-74
2021/10/24 06:48:52;;;;;;;7.13;3.42;;;;;;;;;;4970720;28;20491;-74
2021/10/24 06:51:17;;;;;;;7.20;3.08;;;;;;;;;;4969230;28;20062;-74
2021/10/24 06:53:43;;;;;;;5.55;2.80;;;;;;;;;;4964485;28;20031;-74
2021/10/24 06:56:08;;;;;;;7.63;4.15;;;;;;;;;;4969546;28;20054;-74
2021/10/24 06:58:34;;;;;;;8.43;3.72;;;;;;;;;;4969514;28;20046;-74
2021/10/24 07:00:59;;;;;;;5.50;3.10;;;;;;;;;;4963970;28;20042;-74
2021/10/24 07:03:25;;;;;;;6.43;2.30;;;;;;;;;;4962409;28;20054;-74
2021/10/24 07:05:50;;;;;;;3.42;2.10;;;;;;;;;;4969431;28;20048;-74
2021/10/24 07:08:16;;;;;;;4.10;2.00;;;;;;;;;;4969488;28;20382;-74
2021/10/24 07:10:41;;;;;;;4.18;1.70;;;;;;;;;;4970407;28;20487;-74
2021/10/24 07:13:07;;;;;;;5.45;2.13;;;;;;;;;;4970088;28;20545;-74
2021/10/24 07:15:32;;;;;;;3.45;1.70;;;;;;;;;;4969788;28;20055;-74
2021/10/24 07:17:58;;;;;;;2.88;1.55;;;;;;;;;;4969507;28;20022;-74
2021/10/24 07:20:23;;;;;;;3.17;1.98;;;;;;;;;;4970031;28;20474;-74
2021/10/24 07:22:49;;;;;;;2.67;1.60;;;;;;;;;;4967169;28;20077;-74
2021/10/24 07:25:15;;;;;;;3.42;1.60;;;;;;;;;;4965428;28;20062;-74
2021/10/24 07:27:42;;;;;;;4.70;1.80;;;;;;;;;;4957260;28;20039;-74
2021/10/24 07:30:08;;;;;;;3.72;1.67;;;;;;;;;;4972537;28;20123;-74
2021/10/24 07:32:35;;;;;;;5.47;1.73;;;;;;;;;;4973874;28;20054;-74
2021/10/24 07:35:00;;;;;;;3.67;1.52;;;;;;;;;;4973029;28;20038;-74
2021/10/24 07:37:26;;;;;;;2.55;1.33;;;;;;;;;;4973536;28;20510;-74
2021/10/24 07:39:51;;;;;;;3.28;1.70;;;;;;;;;;4972861;28;20255;-74
2021/10/24 07:42:17;;;;;;;5.32;1.75;;;;;;;;;;4972873;28;20046;-74
2021/10/24 07:44:42;;;;;;;4.22;1.60;;;;;;;;;;4973599;28;20386;-74
2021/10/24 07:47:08;;;;;;;4.60;1.75;;;;;;;;;;4973688;28;20015;-74
2021/10/24 07:49:34;;;;;;;3.90;1.60;;;;;;;;;;4969495;28;20034;-74
2021/10/24 07:51:59;;;;;;;2.80;1.30;;;;;;;;;;4963932;28;20143;-74
2021/10/24 07:54:26;;;;;;;4.05;1.65;;;;;;;;;;4965692;28;20029;-74
2021/10/24 07:56:52;;;;;;;3.33;1.13;;;;;;;;;;4972556;28;20379;-73
2021/10/24 07:59:20;;;;;;;2.80;0.90;;;;;;;;;;4972587;28;20015;-73
2021/10/24 08:01:45;;;;;;;1.50;0.63;;;;;;;;;;4970757;28;20031;-73
2021/10/24 08:04:11;;;;;;;22.95;14.07;;;;;;;;;;4972463;28;20027;-73
2021/10/24 08:06:38;;;;;;;64.60;32.80;;;;;;;;;;4972391;28;20458;-73
2021/10/24 08:09:06;;;;;;;61.83;29.25;;;;;;;;;;4972378;28;20027;-73
2021/10/24 08:11:33;;;;;;;9.68;4.72;;;;;;;;;;4972718;28;20541;-73
2021/10/24 08:13:59;;;;;;;44.63;23.58;;;;;;;;;;4972651;28;20038;-73
2021/10/24 08:16:25;;;;;;;5.10;2.35;;;;;;;;;;4972626;28;20070;-74
2021/10/24 08:18:52;;;;;;;14.88;8.85;;;;;;;;;;4972369;28;20035;-74
2021/10/24 08:21:17;;;;;;;11.60;6.35;;;;;;;;;;4972454;28;20034;-73
2021/10/24 08:23:44;;;;;;;16.20;8.35;;;;;;;;;;4971001;28;20042;-74
2021/10/24 08:26:09;;;;;;;20.05;9.65;;;;;;;;;;4972446;28;20069;-73
2021/10/24 08:28:36;;;;;;;13.68;6.45;;;;;;;;;;4972006;28;20085;-73
2021/10/24 08:31:02;;;;;;;44.75;18.65;;;;;;;;;;4972162;28;20027;-74
2021/10/24 08:33:29;;;;;;;29.50;14.75;;;;;;;;;;4968878;28;20415;-74
2021/10/24 08:35:55;;;;;;;13.57;7.97;;;;;;;;;;4972188;28;20038;-74
2021/10/24 08:38:20;;;;;;;3.33;1.42;;;;;;;;;;4960898;28;20039;-73
2021/10/24 08:40:46;;;;;;;4.70;2.40;;;;;;;;;;4971716;28;20154;-73
2021/10/24 08:43:19;;;;;;;16.02;6.95;;;;;;;;;;4969787;28;20116;-73
2021/10/24 08:45:48;;;;;;;3.90;1.42;;;;;;;;;;4966332;28;20035;-73
2021/10/24 08:48:17;;;;;;;4.63;2.20;;;;;;;;;;4971781;28;20093;-74
2021/10/24 08:50:43;;;;;;;7.35;2.08;;;;;;;;;;4972037;28;20026;-74
2021/10/24 08:53:15;;;;;;;9.07;3.83;;;;;;;;;;4972164;28;20022;-73
2021/10/24 08:55:41;;;;;;;6.07;1.52;;;;;;;;;;4970488;28;20415;-73
2021/10/24 08:58:09;;;;;;;25.65;13.57;;;;;;;;;;4969821;28;20015;-74
2021/10/24 09:00:34;;;;;;;14.02;7.88;;;;;;;;;;4967210;28;20113;-74
2021/10/24 09:03:09;;;;;;;7.50;2.90;;;;;;;;;;4972033;28;20073;-74
2021/10/24 09:05:46;;;;;;;6.00;2.63;;;;;;;;;;4972336;28;20058;-74
2021/10/24 09:08:19;;;;;;;5.60;3.10;;;;;;;;;;4969108;28;20030;-74
2021/10/24 09:10:49;;;;;;;;;;;;;;;;;;4972633;28;20668;-74
2021/10/24 09:13:19;;;;;;;11.23;5.38;;;;;;;;;;4974408;28;19948;-74
2021/10/24 09:16:06;;;;;;;9.13;4.20;;;;;;;;;;4974627;28;20035;-75
2021/10/24 09:18:33;;;;;;;12.88;5.57;;;;;;;;;;4973382;28;20042;-75
2021/10/24 09:21:18;;;;;;;12.23;5.07;;;;;;;;;;4971107;28;20026;-75
2021/10/24 09:23:43;;;;;;;20.88;10.00;;;;;;;;;;4953783;28;20126;-74
2021/10/24 09:26:22;;;;;;;13.43;6.78;;;;;;;;;;4968352;28;20554;-74
2021/10/24 09:29:13;;;;;;;15.35;4.25;;;;;;;;;;4972236;28;20531;-75
2021/10/24 09:32:01;;;;;;;9.68;3.15;;;;;;;;;;4959623;28;20050;-74
2021/10/24 09:34:26;;;;;;;18.33;8.73;;;;;;;;;;4963075;28;20031;-74
2021/10/24 09:36:53;;;;;;;8.43;2.35;;;;;;;;;;4973126;28;20030;-75
2021/10/24 09:39:19;;;;;;;13.90;4.10;;;;;;;;;;4972552;28;20062;-74
2021/10/24 09:41:45;;;;;;;10.57;4.85;;;;;;;;;;4973251;28;20042;-74
2021/10/24 09:44:13;;;;;;;15.60;7.03;;;;;;;;;;4972109;28;20027;-74
2021/10/24 09:46:55;;;;;;;9.60;1.60;;;;;;;;;;4969219;28;20026;-74
2021/10/24 09:49:23;;;;;;;13.48;3.70;;;;;;;;;;4971675;28;20600;-74
2021/10/24 09:51:49;;;;;;;3.88;1.23;;;;;;;;;;4970792;28;20027;-75
2021/10/24 09:54:23;;;;;;;6.20;1.60;;;;;;;;;;4967073;28;20034;-74
2021/10/24 09:56:53;;;;;;;7.45;1.70;;;;;;;;;;4967045;28;20031;-73
2021/10/24 09:59:24;;;;;;;6.97;1.98;;;;;;;;;;4983482;28;20033;-78
2021/10/24 10:01:54;;;;;;;10.10;1.50;;;;;;;;;;4971612;28;20081;-74
2021/10/24 10:04:24;;;;;;;9.48;2.05;;;;;;;;;;4970884;28;20023;-74
2021/10/24 10:06:50;;;;;;;6.68;2.58;;;;;;;;;;4970594;28;20026;-73
2021/10/24 10:09:16;;;;;;;11.13;2.92;;;;;;;;;;4962596;28;20023;-73
2021/10/24 10:11:57;;;;;;;7.20;2.25;;;;;;;;;;4971332;28;20117;-73
2021/10/24 10:14:26;;;;;;;6.85;1.70;;;;;;;;;;4970340;28;20019;-74
2021/10/24 10:16:58;;;;;;;9.23;1.80;;;;;;;;;;4971928;28;20117;-74
2021/10/24 10:19:32;;;;;;;7.15;1.52;;;;;;;;;;4971586;28;20502;-74
2021/10/24 10:22:21;;;;;;;7.32;1.25;;;;;;;;;;4970568;28;20129;-74
2021/10/24 10:24:55;;;;;;;6.95;1.35;;;;;;;;;;4962386;28;20498;-73
2021/10/24 10:27:27;;;;;;;7.70;1.42;;;;;;;;;;4966718;28;20031;-74
2021/10/24 10:30:07;;;;;;;13.48;1.88;;;;;;;;;;4972195;28;20110;-74
2021/10/24 10:32:37;;;;;;;7.57;1.20;;;;;;;;;;4963453;28;20030;-73
2021/10/24 10:35:13;;;;;;;10.25;2.30;;;;;;;;;;4968455;28;20027;-73
2021/10/24 10:37:53;;;;;;;8.55;1.10;;;;;;;;;;4963891;28;20039;-72
2021/10/24 10:40:30;;;;;;;7.50;1.48;;;;;;;;;;4968964;28;20027;-74
2021/10/24 10:43:17;;;;;;;4.40;0.88;;;;;;;;;;4985490;28;20125;-75
2021/10/24 10:45:49;;;;;;;6.43;0.90;;;;;;;;;;4965774;28;20053;-74
2021/10/24 10:48:21;;;;;;;3.40;0.73;;;;;;;;;;4970155;28;20536;-74
2021/10/24 10:50:48;;;;;;;4.38;0.80;;;;;;;;;;4970188;28;20037;-73
2021/10/24 10:53:38;;;;;;;6.47;1.63;;;;;;;;;;4970108;28;20018;-72
2021/10/24 10:56:05;;;;;;;8.45;1.75;;;;;;;;;;4980049;28;20039;-72
2021/10/24 10:58:38;;;;;;;10.95;2.75;;;;;;;;;;4969925;28;20047;-73
2021/10/24 11:01:23;;;;;;;7.00;1.77;;;;;;;;;;4969761;28;20037;-73
2021/10/24 11:03:50;;;;;;;8.85;1.33;;;;;;;;;;4962329;28;20030;-73
2021/10/24 11:06:25;;;;;;;5.80;0.88;;;;;;;;;;4972198;28;20033;-73
2021/10/24 11:08:53;;;;;;;6.15;1.40;;;;;;;;;;4967968;28;20426;-73
2021/10/24 11:11:37;;;;;;;12.88;1.20;;;;;;;;;;4973459;28;20046;-74
2021/10/24 11:14:15;;;;;;;5.55;0.80;;;;;;;;;;4973672;28;20117;-74
2021/10/24 11:16:46;;;;;;;5.40;0.98;;;;;;;;;;4969437;28;20093;-73
2021/10/24 11:19:27;;;;;;;4.68;0.90;;;;;;;;;;4972531;28;20391;-74
2021/10/24 11:22:16;;;;;;;5.05;1.05;;;;;;;;;;4965601;28;20500;-73
2021/10/24 11:24:55;;;;;;;8.95;0.93;;;;;;;;;;4972983;28;20050;-73
2021/10/24 11:27:26;;;;;;;7.50;1.23;;;;;;;;;;4967673;28;20014;-73
2021/10/24 11:30:05;;;;;;;6.22;1.02;;;;;;;;;;4972233;28;20037;-74
2021/10/24 11:32:39;;;;;;;3.05;0.82;;;;;;;;;;4967026;28;20125;-73
2021/10/24 11:35:14;;;;;;;8.02;1.10;;;;;;;;;;4972090;28;20026;-73
2021/10/24 11:37:45;;;;;;;5.43;0.88;;;;;;;;;;4970850;28;20157;-73
2021/10/24 11:40:17;;;;;;;7.10;1.20;;;;;;;;;;4966472;28;20023;-73
2021/10/24 11:42:55;;;;;;;3.28;0.90;;;;;;;;;;4971780;28;20031;-73
2021/10/24 11:45:22;;;;;;;7.85;1.00;;;;;;;;;;4972659;28;20455;-74
2021/10/24 11:48:07;;;;;;;5.03;0.88;;;;;;;;;;4973663;28;20038;-73
2021/10/24 11:50:44;;;;;;;5.00;1.20;;;;;;;;;;4958123;28;20364;-73
2021/10/24 11:53:34;;;;;;;3.55;0.90;;;;;;;;;;4973711;28;20022;-74
2021/10/24 11:56:25;;;;;;;5.80;0.95;;;;;;;;;;4970434;28;20118;-73
2021/10/24 12:01:36;;;;;;;8.13;0.95;;;;;;;;;;4972764;28;20057;-73
2021/10/24 12:04:13;;;;;;;4.55;0.95;;;;;;;;;;4973427;28;20114;-73
2021/10/24 12:07:00;;;;;;;7.22;0.90;;;;;;;;;;4971664;28;20027;-73
2021/10/24 12:09:39;;;;;;;3.13;1.05;;;;;;;;;;4972839;28;20053;-74
2021/10/24 12:12:04;;;;;;;7.05;1.50;;;;;;;;;;4972691;28;20026;-73
2021/10/24 12:14:30;;;;;;;12.38;2.10;;;;;;;;;;4972730;28;20029;-73
2021/10/24 12:16:56;;;;;;;3.30;0.70;;;;;;;;;;4963492;28;20448;-73
2021/10/24 12:19:31;;;;;;;8.77;1.05;;;;;;;;;;4970269;28;20050;-74
2021/10/24 12:21:58;;;;;;;9.65;1.27;;;;;;;;;;4972594;28;20050;-73
2021/10/24 12:24:26;;;;;;;7.55;1.08;;;;;;;;;;4958139;28;20539;-73
2021/10/24 12:27:09;;;;;;;7.35;0.98;;;;;;;;;;4953697;28;20435;-74
2021/10/24 12:29:35;;;;;;;7.85;0.93;;;;;;;;;;4961086;28;20038;-73
2021/10/24 12:32:10;;;;;;;10.38;2.15;;;;;;;;;;4972533;28;20081;-73
2021/10/24 12:34:36;;;;;;;7.70;1.10;;;;;;;;;;4971782;28;20487;-73
2021/10/24 12:37:02;;;;;;;6.85;1.15;;;;;;;;;;4968159;28;20023;-73
2021/10/24 12:39:27;;;;;;;4.60;0.88;;;;;;;;;;4972451;28;20035;-73
2021/10/24 12:41:53;;;;;;;7.57;1.85;;;;;;;;;;4972691;28;20414;-73
2021/10/24 12:44:22;;;;;;;8.07;1.02;;;;;;;;;;4972811;28;20573;-73
2021/10/24 12:46:47;;;;;;;4.65;0.90;;;;;;;;;;4972794;28;20045;-73
2021/10/24 12:49:22;;;;;;;4.93;1.17;;;;;;;;;;4972827;28;20359;-73
2021/10/24 12:51:50;;;;;;;4.50;0.70;;;;;;;;;;4972378;28;20044;-73
2021/10/24 12:54:30;;;;;;;5.47;1.30;;;;;;;;;;4972687;28;20105;-73
2021/10/24 12:56:56;;;;;;;7.35;1.33;;;;;;;;;;4970441;28;20493;-73
2021/10/24 12:59:22;;;;;;;6.15;1.20;;;;;;;;;;4972425;28;20023;-73
2021/10/24 13:01:49;;;;;;;7.97;1.20;;;;;;;;;;4972113;28;20100;-73
2021/10/24 13:04:16;;;;;;;6.25;1.27;;;;;;;;;;4972217;28;20026;-73
2021/10/24 13:06:41;;;;;;;7.97;1.85;;;;;;;;;;4972365;28;20101;-73
2021/10/24 13:09:07;;;;;;;10.50;2.10;;;;;;;;;;4957674;28;20127;-73
2021/10/24 13:11:33;;;;;;;5.00;0.77;;;;;;;;;;4952719;28;20364;-73
2021/10/24 13:13:59;;;;;;;11.15;1.92;;;;;;;;;;4959489;28;20027;-73
2021/10/24 13:16:25;;;;;;;4.70;1.75;;;;;;;;;;4972038;28;20514;-72
2021/10/24 13:18:51;;;;;;;7.75;1.00;;;;;;;;;;4972194;28;20030;-73
2021/10/24 13:24:07;;;;;;;6.65;1.13;;;;;;;;;;4972058;28;20226;-73
2021/10/24 13:26:33;;;;;;;;;;;;;;;;;;4972056;28;20492;-73
2021/10/24 13:28:59;;;;;;;4.03;0.90;;;;;;;;;;4971924;28;19916;-73
2021/10/24 13:31:25;;;;;;;4.55;1.00;;;;;;;;;;4968333;28;20038;-73
2021/10/24 13:33:52;;;;;;;7.55;1.23;;;;;;;;;;4970843;28;20138;-73
2021/10/24 13:36:18;;;;;;;6.43;0.75;;;;;;;;;;4970855;28;20035;-73
2021/10/24 13:38:43;;;;;;;5.57;1.13;;;;;;;;;;4971341;28;20037;-73
2021/10/24 13:41:09;;;;;;;5.38;1.13;;;;;;;;;;4971818;28;20351;-72
2021/10/24 13:43:34;;;;;;;7.68;1.10;;;;;;;;;;4971438;28;20077;-72
2021/10/24 13:46:00;;;;;;;4.90;0.80;;;;;;;;;;4971790;28;20026;-72
2021/10/24 13:48:27;;;;;;;3.85;0.95;;;;;;;;;;4971620;28;20486;-73
2021/10/24 13:50:52;;;;;;;4.45;1.02;;;;;;;;;;4972148;28;20471;-74
2021/10/24 13:53:17;;;;;;;6.40;2.08;;;;;;;;;;4971664;28;20038;-75
2021/10/24 13:55:43;;;;;;;6.15;1.35;;;;;;;;;;4971432;28;20026;-74
2021/10/24 13:58:08;;;;;;;7.90;1.20;;;;;;;;;;4971744;28;20030;-74
2021/10/24 14:00:34;;;;;;;13.48;1.17;;;;;;;;;;4972130;28;20138;-74
2021/10/24 14:03:02;;;;;;;5.95;1.17;;;;;;;;;;4970105;28;20026;-74
2021/10/24 14:05:30;;;;;;;8.95;0.77;;;;;;;;;;4965959;28;20042;-74
2021/10/24 14:08:00;;;;;;;6.40;0.95;;;;;;;;;;4971840;28;20054;-74
2021/10/24 14:10:26;;;;;;;7.45;1.13;;;;;;;;;;4957699;28;20035;-74
2021/10/24 14:12:53;;;;;;;11.25;1.65;;;;;;;;;;4964667;28;20049;-75
2021/10/24 14:15:18;;;;;;;9.75;1.63;;;;;;;;;;4969618;28;20035;-74
2021/10/24 14:17:46;;;;;;;5.03;1.25;;;;;;;;;;4970729;28;20521;-74
2021/10/24 14:20:12;;;;;;;5.00;1.13;;;;;;;;;;4970751;28;20045;-75
2021/10/24 14:22:37;;;;;;;7.63;1.30;;;;;;;;;;4969322;28;20856;-76
2021/10/24 14:25:03;;;;;;;6.97;1.20;;;;;;;;;;4953458;28;20644;-76
2021/10/24 14:27:29;;;;;;;11.65;2.03;;;;;;;;;;4962468;28;20015;-74
2021/10/24 14:29:54;;;;;;;5.82;1.20;;;;;;;;;;4959557;28;20030;-75
2021/10/24 14:32:20;;;;;;;7.47;1.20;;;;;;;;;;4958228;28;20031;-74
2021/10/24 14:34:46;;;;;;;5.30;1.17;;;;;;;;;;4972515;28;20038;-73
2021/10/24 14:37:11;;;;;;;8.70;1.70;;;;;;;;;;4971499;28;20027;-77
2021/10/24 14:39:37;;;;;;;9.55;1.83;;;;;;;;;;4974721;28;20035;-73
2021/10/24 14:42:03;;;;;;;6.32;1.40;;;;;;;;;;4975708;28;20043;-73
2021/10/24 14:44:29;;;;;;;6.20;0.98;;;;;;;;;;4975318;28;20348;-74
2021/10/24 14:46:54;;;;;;;7.88;1.40;;;;;;;;;;4972397;28;20023;-73
2021/10/24 14:49:21;;;;;;;5.70;1.20;;;;;;;;;;4972076;28;20525;-74
2021/10/24 14:51:46;;;;;;;7.82;1.40;;;;;;;;;;4975340;28;20038;-72